sensor_id;sensor_type;location;lat;lon;timestamp;temperature;humidity
11474;DHT22;5793;52.238;13.438;2023-04-06T00:01:47;0.90;99.90
11474;DHT22;5793;52.238;13.438;2023-04-06T00:04:15;0.90;99.90
11474;DHT22;5793;52.238;13.438;2023-04-06T00:06:42;0.90;99.90
11474;DHT22;5793;52.238;13.438;2023-04-06T00:09:10;0.80;99.90
11474;DHT22;5793;52.238;13.438;2023-04-06T00:11:39;0.80;99.90
11474;DHT22;5793;52.238;13.438;2023-04-06T00:14:07;0.70;99.90
11474;DHT22;5793;52.238;13.438;2023-04-06T00:16:35;0.70;99.90
11474;DHT22;5793;52.238;13.438;2023-04-06T00:19:03;0.80;99.90
11474;DHT22;5793;52.238;13.438;2023-04-06T00:21:30;0.70;99.90
11474;DHT22;5793;52.238;13.438;2023-04-06T00:23:58;0.50;99.90
11474;DHT22;5793;52.238;13.438;2023-04-06T00:26:26;0.40;99.90
11474;DHT22;5793;52.238;13.438;2023-04-06T00:28:55;0.40;99.90
11474;DHT22;5793;52.238;13.438;2023-04-06T00:31:25;0.40;99.90
11474;DHT22;5793;52.238;13.438;2023-04-06T00:33:52;0.20;99.90
11474;DHT22;5793;52.238;13.438;2023-04-06T00:36:20;0.20;99.90
11474;DHT22;5793;52.238;13.438;2023-04-06T00:38:48;0.20;99.90
11474;DHT22;5793;52.238;13.438;2023-04-06T00:41:17;0.20;99.90
11474;DHT22;5793;52.238;13.438;2023-04-06T00:43:45;0.20;99.90
11474;DHT22;5793;52.238;13.438;2023-04-06T00:46:14;0.10;99.90
11474;DHT22;5793;52.238;13.438;2023-04-06T00:48:42;0.10;99.90
11474;DHT22;5793;52.238;13.438;2023-04-06T00:51:09;0.00;99.90
11474;DHT22;5793;52.238;13.438;2023-04-06T00:53:37;0.00;99.90
11474;DHT22;5793;52.238;13.438;2023-04-06T00:56:05;0.10;99.90
11474;DHT22;5793;52.238;13.438;2023-04-06T00:58:36;0.10;99.90
11474;DHT22;5793;52.238;13.438;2023-04-06T01:01:05;0.20;99.90
11474;DHT22;5793;52.238;13.438;2023-04-06T01:03:34;0.10;99.90
11474;DHT22;5793;52.238;13.438;2023-04-06T01:06:02;0.20;99.90
11474;DHT22;5793;52.238;13.438;2023-04-06T01:08:30;0.10;99.90
11474;DHT22;5793;52.238;13.438;2023-04-06T01:10:59;0.10;99.90
11474;DHT22;5793;52.238;13.438;2023-04-06T01:13:27;0.10;99.90
11474;DHT22;5793;52.238;13.438;2023-04-06T01:15:55;0.10;99.90
11474;DHT22;5793;52.238;13.438;2023-04-06T01:18:25;0.00;99.90
11474;DHT22;5793;52.238;13.438;2023-04-06T01:20:55;0.00;99.90
11474;DHT22;5793;52.238;13.438;2023-04-06T01:23:24;-0.10;99.90
11474;DHT22;5793;52.238;13.438;2023-04-06T01:25:52;-0.10;99.90
11474;DHT22;5793;52.238;13.438;2023-04-06T01:28:20;-0.10;99.90
11474;DHT22;5793;52.238;13.438;2023-04-06T01:30:47;-0.10;99.90
11474;DHT22;5793;52.238;13.438;2023-04-06T01:33:15;-0.20;99.90
11474;DHT22;5793;52.238;13.438;2023-04-06T01:35:43;-0.30;99.90
11474;DHT22;5793;52.238;13.438;2023-04-06T01:38:11;-0.20;99.90
11474;DHT22;5793;52.238;13.438;2023-04-06T01:40:40;-0.20;99.90
11474;DHT22;5793;52.238;13.438;2023-04-06T01:43:08;-0.30;99.90
11474;DHT22;5793;52.238;13.438;2023-04-06T01:45:36;-0.30;99.90
11474;DHT22;5793;52.238;13.438;2023-04-06T01:48:04;-0.30;99.90
11474;DHT22;5793;52.238;13.438;2023-04-06T01:50:32;-0.40;99.90
11474;DHT22;5793;52.238;13.438;2023-04-06T01:52:59;-0.40;99.90
11474;DHT22;5793;52.238;13.438;2023-04-06T01:55:27;-0.60;99.90
11474;DHT22;5793;52.238;13.438;2023-04-06T01:57:56;-0.60;99.90
11474;DHT22;5793;52.238;13.438;2023-04-06T02:00:24;-0.70;99.90
11474;DHT22;5793;52.238;13.438;2023-04-06T02:02:52;-0.80;99.90
11474;DHT22;5793;52.238;13.438;2023-04-06T02:05:20;-0.80;99.90
11474;DHT22;5793;52.238;13.438;2023-04-06T02:07:47;-0.80;99.90
11474;DHT22;5793;52.238;13.438;2023-04-06T02:10:15;-0.80;99.90
11474;DHT22;5793;52.238;13.438;2023-04-06T02:12:43;-0.90;99.90
11474;DHT22;5793;52.238;13.438;2023-04-06T02:15:12;-0.90;99.90
11474;DHT22;5793;52.238;13.438;2023-04-06T02:17:41;-0.90;99.90
11474;DHT22;5793;52.238;13.438;2023-04-06T02:20:09;-0.90;99.90
11474;DHT22;5793;52.238;13.438;2023-04-06T02:22:37;-0.90;99.90
11474;DHT22;5793;52.238;13.438;2023-04-06T02:25:05;-0.90;99.90
11474;DHT22;5793;52.238;13.438;2023-04-06T02:27:33;-0.90;99.90
11474;DHT22;5793;52.238;13.438;2023-04-06T02:30:02;-0.80;99.90
11474;DHT22;5793;52.238;13.438;2023-04-06T02:32:31;-0.80;99.90
11474;DHT22;5793;52.238;13.438;2023-04-06T02:34:59;-0.80;99.90
11474;DHT22;5793;52.238;13.438;2023-04-06T02:37:27;-0.70;99.90
11474;DHT22;5793;52.238;13.438;2023-04-06T02:39:55;-0.70;99.90
11474;DHT22;5793;52.238;13.438;2023-04-06T02:42:23;-0.70;99.90
11474;DHT22;5793;52.238;13.438;2023-04-06T02:44:51;-0.80;99.90
11474;DHT22;5793;52.238;13.438;2023-04-06T02:47:18;-0.80;99.90
11474;DHT22;5793;52.238;13.438;2023-04-06T02:49:47;-0.90;99.90
11474;DHT22;5793;52.238;13.438;2023-04-06T02:52:15;-1.00;99.90
11474;DHT22;5793;52.238;13.438;2023-04-06T02:54:44;-1.00;99.90
11474;DHT22;5793;52.238;13.438;2023-04-06T02:57:12;-1.00;99.90
11474;DHT22;5793;52.238;13.438;2023-04-06T02:59:39;-1.10;99.90
11474;DHT22;5793;52.238;13.438;2023-04-06T03:02:07;-1.20;99.90
11474;DHT22;5793;52.238;13.438;2023-04-06T03:04:35;-1.20;99.90
11474;DHT22;5793;52.238;13.438;2023-04-06T03:07:04;-1.20;99.90
11474;DHT22;5793;52.238;13.438;2023-04-06T03:09:32;-1.20;99.90
11474;DHT22;5793;52.238;13.438;2023-04-06T03:12:00;-1.30;99.90
11474;DHT22;5793;52.238;13.438;2023-04-06T03:14:28;-1.30;99.90
11474;DHT22;5793;52.238;13.438;2023-04-06T03:16:56;-1.40;99.90
11474;DHT22;5793;52.238;13.438;2023-04-06T03:19:24;-1.40;99.90
11474;DHT22;5793;52.238;13.438;2023-04-06T03:21:52;-1.40;99.90
11474;DHT22;5793;52.238;13.438;2023-04-06T03:24:21;-1.50;99.90
11474;DHT22;5793;52.238;13.438;2023-04-06T03:26:48;-1.50;99.90
11474;DHT22;5793;52.238;13.438;2023-04-06T03:29:16;-1.50;99.90
11474;DHT22;5793;52.238;13.438;2023-04-06T03:31:44;-1.60;99.90
11474;DHT22;5793;52.238;13.438;2023-04-06T03:34:12;-1.70;99.90
11474;DHT22;5793;52.238;13.438;2023-04-06T03:36:40;-1.70;99.90
11474;DHT22;5793;52.238;13.438;2023-04-06T03:39:07;-1.80;99.90
11474;DHT22;5793;52.238;13.438;2023-04-06T03:41:37;-1.90;99.90
11474;DHT22;5793;52.238;13.438;2023-04-06T03:44:05;-1.90;99.90
11474;DHT22;5793;52.238;13.438;2023-04-06T03:46:33;-1.90;99.90
11474;DHT22;5793;52.238;13.438;2023-04-06T03:49:01;-1.90;99.90
11474;DHT22;5793;52.238;13.438;2023-04-06T03:51:29;-2.00;99.90
11474;DHT22;5793;52.238;13.438;2023-04-06T03:53:57;-2.10;99.90
11474;DHT22;5793;52.238;13.438;2023-04-06T03:56:25;-2.10;99.90
11474;DHT22;5793;52.238;13.438;2023-04-06T03:58:54;-2.20;99.90
11474;DHT22;5793;52.238;13.438;2023-04-06T04:01:22;-2.30;99.90
11474;DHT22;5793;52.238;13.438;2023-04-06T04:03:50;-2.30;99.90
11474;DHT22;5793;52.238;13.438;2023-04-06T04:06:18;-2.30;99.90
11474;DHT22;5793;52.238;13.438;2023-04-06T04:08:47;-2.30;99.90
11474;DHT22;5793;52.238;13.438;2023-04-06T04:11:14;-2.30;99.90
11474;DHT22;5793;52.238;13.438;2023-04-06T04:13:43;-2.30;99.90
11474;DHT22;5793;52.238;13.438;2023-04-06T04:16:12;-2.30;99.90
11474;DHT22;5793;52.238;13.438;2023-04-06T04:18:40;-2.30;99.90
11474;DHT22;5793;52.238;13.438;2023-04-06T04:21:10;-2.40;99.90
11474;DHT22;5793;52.238;13.438;2023-04-06T04:23:38;-2.30;99.90
11474;DHT22;5793;52.238;13.438;2023-04-06T04:26:05;-2.20;99.90
11474;DHT22;5793;52.238;13.438;2023-04-06T04:28:33;-2.00;99.90
11474;DHT22;5793;52.238;13.438;2023-04-06T04:31:01;-1.90;99.90
11474;DHT22;5793;52.238;13.438;2023-04-06T04:33:30;-2.00;99.90
11474;DHT22;5793;52.238;13.438;2023-04-06T04:35:58;-2.00;99.90
11474;DHT22;5793;52.238;13.438;2023-04-06T04:38:25;-2.00;99.90
11474;DHT22;5793;52.238;13.438;2023-04-06T04:40:53;-2.00;99.90
11474;DHT22;5793;52.238;13.438;2023-04-06T04:43:21;-2.00;99.90
11474;DHT22;5793;52.238;13.438;2023-04-06T04:45:49;-2.00;99.90
11474;DHT22;5793;52.238;13.438;2023-04-06T04:48:17;-2.20;99.90
11474;DHT22;5793;52.238;13.438;2023-04-06T04:50:46;-2.30;99.90
11474;DHT22;5793;52.238;13.438;2023-04-06T04:53:13;-2.40;99.90
11474;DHT22;5793;52.238;13.438;2023-04-06T04:55:41;-2.40;99.90
11474;DHT22;5793;52.238;13.438;2023-04-06T04:58:09;-2.40;99.90
11474;DHT22;5793;52.238;13.438;2023-04-06T05:00:40;-2.40;99.90
11474;DHT22;5793;52.238;13.438;2023-04-06T05:03:08;-2.40;99.90
11474;DHT22;5793;52.238;13.438;2023-04-06T05:05:36;-2.50;99.90
11474;DHT22;5793;52.238;13.438;2023-04-06T05:08:06;-2.40;99.90
11474;DHT22;5793;52.238;13.438;2023-04-06T05:10:34;-2.30;99.90
11474;DHT22;5793;52.238;13.438;2023-04-06T05:13:02;-2.40;99.90
11474;DHT22;5793;52.238;13.438;2023-04-06T05:15:30;-2.30;99.90
11474;DHT22;5793;52.238;13.438;2023-04-06T05:17:58;-2.30;99.90
11474;DHT22;5793;52.238;13.438;2023-04-06T05:20:26;-2.30;99.90
11474;DHT22;5793;52.238;13.438;2023-04-06T05:22:54;-2.20;99.90
11474;DHT22;5793;52.238;13.438;2023-04-06T05:25:24;-2.30;99.90
11474;DHT22;5793;52.238;13.438;2023-04-06T05:27:54;-2.20;99.90
11474;DHT22;5793;52.238;13.438;2023-04-06T05:30:22;-2.30;99.90
11474;DHT22;5793;52.238;13.438;2023-04-06T05:32:51;-2.20;99.90
11474;DHT22;5793;52.238;13.438;2023-04-06T05:35:18;-2.20;99.90
11474;DHT22;5793;52.238;13.438;2023-04-06T05:37:46;-2.20;99.90
11474;DHT22;5793;52.238;13.438;2023-04-06T05:40:14;-2.00;99.90
11474;DHT22;5793;52.238;13.438;2023-04-06T05:42:43;-1.90;99.90
11474;DHT22;5793;52.238;13.438;2023-04-06T05:45:11;-1.70;99.90
11474;DHT22;5793;52.238;13.438;2023-04-06T05:47:43;-1.50;99.90
11474;DHT22;5793;52.238;13.438;2023-04-06T05:50:13;-1.40;99.90
11474;DHT22;5793;52.238;13.438;2023-04-06T05:52:41;-1.20;99.90
11474;DHT22;5793;52.238;13.438;2023-04-06T05:55:11;-1.10;99.90
11474;DHT22;5793;52.238;13.438;2023-04-06T05:57:39;-1.00;99.90
11474;DHT22;5793;52.238;13.438;2023-04-06T06:00:10;-0.80;99.90
11474;DHT22;5793;52.238;13.438;2023-04-06T06:02:38;-0.80;99.90
11474;DHT22;5793;52.238;13.438;2023-04-06T06:05:07;-0.60;99.90
11474;DHT22;5793;52.238;13.438;2023-04-06T06:07:35;-0.50;99.90
11474;DHT22;5793;52.238;13.438;2023-04-06T06:10:03;-0.40;99.90
11474;DHT22;5793;52.238;13.438;2023-04-06T06:12:31;-0.30;99.90
11474;DHT22;5793;52.238;13.438;2023-04-06T06:14:59;-0.20;99.90
11474;DHT22;5793;52.238;13.438;2023-04-06T06:17:28;0.00;99.90
11474;DHT22;5793;52.238;13.438;2023-04-06T06:19:56;0.10;99.90
11474;DHT22;5793;52.238;13.438;2023-04-06T06:22:23;0.20;99.90
11474;DHT22;5793;52.238;13.438;2023-04-06T06:24:51;0.50;99.90
11474;DHT22;5793;52.238;13.438;2023-04-06T06:27:19;0.70;99.90
11474;DHT22;5793;52.238;13.438;2023-04-06T06:29:47;0.90;99.90
11474;DHT22;5793;52.238;13.438;2023-04-06T06:32:15;1.20;99.90
11474;DHT22;5793;52.238;13.438;2023-04-06T06:34:44;1.30;99.90
11474;DHT22;5793;52.238;13.438;2023-04-06T06:37:12;1.50;99.90
11474;DHT22;5793;52.238;13.438;2023-04-06T06:39:39;1.70;99.90
11474;DHT22;5793;52.238;13.438;2023-04-06T06:42:10;1.80;99.90
11474;DHT22;5793;52.238;13.438;2023-04-06T06:44:40;2.00;99.90
11474;DHT22;5793;52.238;13.438;2023-04-06T06:47:08;2.00;99.90
11474;DHT22;5793;52.238;13.438;2023-04-06T06:49:35;2.20;99.90
11474;DHT22;5793;52.238;13.438;2023-04-06T06:52:05;2.30;99.90
11474;DHT22;5793;52.238;13.438;2023-04-06T06:54:32;2.50;99.90
11474;DHT22;5793;52.238;13.438;2023-04-06T06:57:00;2.60;99.90
11474;DHT22;5793;52.238;13.438;2023-04-06T06:59:28;2.80;99.90
11474;DHT22;5793;52.238;13.438;2023-04-06T07:01:56;3.00;99.90
11474;DHT22;5793;52.238;13.438;2023-04-06T07:04:24;3.20;99.90
11474;DHT22;5793;52.238;13.438;2023-04-06T07:06:51;3.30;99.90
11474;DHT22;5793;52.238;13.438;2023-04-06T07:09:20;3.50;99.90
11474;DHT22;5793;52.238;13.438;2023-04-06T07:11:48;3.70;99.90
11474;DHT22;5793;52.238;13.438;2023-04-06T07:14:16;3.90;99.90
11474;DHT22;5793;52.238;13.438;2023-04-06T07:16:44;4.00;99.90
11474;DHT22;5793;52.238;13.438;2023-04-06T07:19:13;4.20;99.90
11474;DHT22;5793;52.238;13.438;2023-04-06T07:21:41;4.40;99.90
11474;DHT22;5793;52.238;13.438;2023-04-06T07:24:09;4.70;99.90
11474;DHT22;5793;52.238;13.438;2023-04-06T07:26:38;4.90;99.90
11474;DHT22;5793;52.238;13.438;2023-04-06T07:29:06;5.10;99.90
11474;DHT22;5793;52.238;13.438;2023-04-06T07:31:34;5.40;99.90
11474;DHT22;5793;52.238;13.438;2023-04-06T07:34:02;5.70;99.90
11474;DHT22;5793;52.238;13.438;2023-04-06T07:36:30;5.90;99.90
11474;DHT22;5793;52.238;13.438;2023-04-06T07:38:58;6.20;99.90
11474;DHT22;5793;52.238;13.438;2023-04-06T07:41:25;6.40;99.90
11474;DHT22;5793;52.238;13.438;2023-04-06T07:43:54;6.70;99.90
11474;DHT22;5793;52.238;13.438;2023-04-06T07:46:22;6.90;99.90
11474;DHT22;5793;52.238;13.438;2023-04-06T07:48:50;7.20;99.90
11474;DHT22;5793;52.238;13.438;2023-04-06T07:51:18;7.40;99.90
11474;DHT22;5793;52.238;13.438;2023-04-06T07:53:46;7.70;99.90
11474;DHT22;5793;52.238;13.438;2023-04-06T07:56:14;7.90;99.90
11474;DHT22;5793;52.238;13.438;2023-04-06T07:58:42;8.10;99.90
11474;DHT22;5793;52.238;13.438;2023-04-06T08:01:12;8.50;99.90
11474;DHT22;5793;52.238;13.438;2023-04-06T08:03:40;9.00;99.90
11474;DHT22;5793;52.238;13.438;2023-04-06T08:06:08;9.40;99.90
11474;DHT22;5793;52.238;13.438;2023-04-06T08:08:36;9.70;99.90
11474;DHT22;5793;52.238;13.438;2023-04-06T08:11:03;9.90;99.90
11474;DHT22;5793;52.238;13.438;2023-04-06T08:13:31;10.30;99.90
11474;DHT22;5793;52.238;13.438;2023-04-06T08:15:59;10.80;98.10
11474;DHT22;5793;52.238;13.438;2023-04-06T08:18:29;11.60;93.30
11474;DHT22;5793;52.238;13.438;2023-04-06T08:20:57;13.30;79.60
11474;DHT22;5793;52.238;13.438;2023-04-06T08:23:25;15.70;63.60
11474;DHT22;5793;52.238;13.438;2023-04-06T08:25:52;18.10;53.70
11474;DHT22;5793;52.238;13.438;2023-04-06T08:28:20;20.10;48.50
11474;DHT22;5793;52.238;13.438;2023-04-06T08:30:48;21.70;44.20
11474;DHT22;5793;52.238;13.438;2023-04-06T08:33:16;22.50;42.30
11474;DHT22;5793;52.238;13.438;2023-04-06T08:35:45;22.90;40.80
11474;DHT22;5793;52.238;13.438;2023-04-06T08:38:13;23.20;41.20
11474;DHT22;5793;52.238;13.438;2023-04-06T08:40:41;24.90;39.00
11474;DHT22;5793;52.238;13.438;2023-04-06T08:43:13;26.10;36.00
11474;DHT22;5793;52.238;13.438;2023-04-06T08:45:41;25.90;36.20
11474;DHT22;5793;52.238;13.438;2023-04-06T08:48:11;26.00;35.30
11474;DHT22;5793;52.238;13.438;2023-04-06T08:50:39;25.70;36.00
11474;DHT22;5793;52.238;13.438;2023-04-06T08:53:08;25.10;34.10
11474;DHT22;5793;52.238;13.438;2023-04-06T08:55:39;24.70;36.00
11474;DHT22;5793;52.238;13.438;2023-04-06T08:58:08;26.20;34.60
11474;DHT22;5793;52.238;13.438;2023-04-06T09:00:37;26.70;34.50
11474;DHT22;5793;52.238;13.438;2023-04-06T09:03:08;26.90;33.50
11474;DHT22;5793;52.238;13.438;2023-04-06T09:05:40;27.20;33.00
11474;DHT22;5793;52.238;13.438;2023-04-06T09:08:09;27.10;33.50
11474;DHT22;5793;52.238;13.438;2023-04-06T09:10:40;25.30;32.40
11474;DHT22;5793;52.238;13.438;2023-04-06T09:13:08;25.50;33.40
11474;DHT22;5793;52.238;13.438;2023-04-06T09:15:37;27.00;31.80
11474;DHT22;5793;52.238;13.438;2023-04-06T09:18:05;27.50;30.80
11474;DHT22;5793;52.238;13.438;2023-04-06T09:20:34;26.90;31.60
11474;DHT22;5793;52.238;13.438;2023-04-06T09:23:02;26.80;31.80
11474;DHT22;5793;52.238;13.438;2023-04-06T09:25:31;26.60;30.70
11474;DHT22;5793;52.238;13.438;2023-04-06T09:28:00;27.00;30.40
11474;DHT22;5793;52.238;13.438;2023-04-06T09:30:28;27.50;31.10
11474;DHT22;5793;52.238;13.438;2023-04-06T09:32:57;28.10;30.10
11474;DHT22;5793;52.238;13.438;2023-04-06T09:35:26;27.70;30.60
11474;DHT22;5793;52.238;13.438;2023-04-06T09:37:56;26.00;32.40
11474;DHT22;5793;52.238;13.438;2023-04-06T09:40:24;21.70;34.20
11474;DHT22;5793;52.238;13.438;2023-04-06T09:42:53;21.40;36.20
11474;DHT22;5793;52.238;13.438;2023-04-06T09:45:24;24.20;34.30
11474;DHT22;5793;52.238;13.438;2023-04-06T09:47:52;26.80;31.40
11474;DHT22;5793;52.238;13.438;2023-04-06T09:50:24;27.60;29.80
11474;DHT22;5793;52.238;13.438;2023-04-06T09:52:54;28.50;27.90
11474;DHT22;5793;52.238;13.438;2023-04-06T09:55:28;28.50;29.10
11474;DHT22;5793;52.238;13.438;2023-04-06T09:58:05;29.20;29.20
11474;DHT22;5793;52.238;13.438;2023-04-06T10:00:40;28.70;29.10
11474;DHT22;5793;52.238;13.438;2023-04-06T10:03:14;27.50;28.80
11474;DHT22;5793;52.238;13.438;2023-04-06T10:05:54;24.30;32.60
11474;DHT22;5793;52.238;13.438;2023-04-06T10:08:27;24.80;31.20
11474;DHT22;5793;52.238;13.438;2023-04-06T10:10:58;27.00;30.90
11474;DHT22;5793;52.238;13.438;2023-04-06T10:13:28;28.80;29.10
11474;DHT22;5793;52.238;13.438;2023-04-06T10:15:57;28.80;27.10
11474;DHT22;5793;52.238;13.438;2023-04-06T10:18:27;27.10;28.30
11474;DHT22;5793;52.238;13.438;2023-04-06T10:21:00;24.50;29.50
11474;DHT22;5793;52.238;13.438;2023-04-06T10:23:32;24.10;29.80
11474;DHT22;5793;52.238;13.438;2023-04-06T10:26:02;25.40;29.10
11474;DHT22;5793;52.238;13.438;2023-04-06T10:28:33;25.50;29.70
11474;DHT22;5793;52.238;13.438;2023-04-06T10:31:04;26.30;28.70
11474;DHT22;5793;52.238;13.438;2023-04-06T10:33:33;26.30;28.00
11474;DHT22;5793;52.238;13.438;2023-04-06T10:36:10;27.30;29.40
11474;DHT22;5793;52.238;13.438;2023-04-06T10:38:39;28.50;27.90
11474;DHT22;5793;52.238;13.438;2023-04-06T10:41:09;29.30;27.20
11474;DHT22;5793;52.238;13.438;2023-04-06T10:43:39;29.80;27.20
11474;DHT22;5793;52.238;13.438;2023-04-06T10:46:09;29.80;27.20
11474;DHT22;5793;52.238;13.438;2023-04-06T10:48:38;30.00;27.10
11474;DHT22;5793;52.238;13.438;2023-04-06T10:51:11;26.80;28.80
11474;DHT22;5793;52.238;13.438;2023-04-06T10:53:41;26.10;28.40
11474;DHT22;5793;52.238;13.438;2023-04-06T10:56:10;24.80;29.00
11474;DHT22;5793;52.238;13.438;2023-04-06T10:58:45;22.90;30.90
11474;DHT22;5793;52.238;13.438;2023-04-06T11:01:14;22.60;30.20
11474;DHT22;5793;52.238;13.438;2023-04-06T11:03:43;23.30;30.00
11474;DHT22;5793;52.238;13.438;2023-04-06T11:06:18;23.80;29.20
11474;DHT22;5793;52.238;13.438;2023-04-06T11:08:46;24.00;30.70
11474;DHT22;5793;52.238;13.438;2023-04-06T11:11:15;23.50;30.70
11474;DHT22;5793;52.238;13.438;2023-04-06T11:13:48;21.80;32.80
11474;DHT22;5793;52.238;13.438;2023-04-06T11:16:17;19.40;34.60
11474;DHT22;5793;52.238;13.438;2023-04-06T11:18:50;17.20;36.10
11474;DHT22;5793;52.238;13.438;2023-04-06T11:21:18;17.20;35.80
11474;DHT22;5793;52.238;13.438;2023-04-06T11:23:46;19.20;35.30
11474;DHT22;5793;52.238;13.438;2023-04-06T11:26:15;20.40;35.20
11474;DHT22;5793;52.238;13.438;2023-04-06T11:28:43;20.40;36.60
11474;DHT22;5793;52.238;13.438;2023-04-06T11:31:12;19.50;35.60
11474;DHT22;5793;52.238;13.438;2023-04-06T11:33:40;18.00;37.20
11474;DHT22;5793;52.238;13.438;2023-04-06T11:36:08;17.10;38.10
11474;DHT22;5793;52.238;13.438;2023-04-06T11:38:39;16.10;40.40
11474;DHT22;5793;52.238;13.438;2023-04-06T11:41:07;15.20;40.90
11474;DHT22;5793;52.238;13.438;2023-04-06T11:43:35;14.30;41.40
11474;DHT22;5793;52.238;13.438;2023-04-06T11:46:03;13.70;42.10
11474;DHT22;5793;52.238;13.438;2023-04-06T11:48:44;13.70;42.10
11474;DHT22;5793;52.238;13.438;2023-04-06T11:51:12;13.90;43.90
11474;DHT22;5793;52.238;13.438;2023-04-06T11:53:44;14.20;42.70
11474;DHT22;5793;52.238;13.438;2023-04-06T11:56:23;14.50;44.60
11474;DHT22;5793;52.238;13.438;2023-04-06T11:58:51;14.60;44.00
11474;DHT22;5793;52.238;13.438;2023-04-06T12:01:19;14.60;43.70
11474;DHT22;5793;52.238;13.438;2023-04-06T12:03:49;14.80;43.30
11474;DHT22;5793;52.238;13.438;2023-04-06T12:06:17;15.00;44.30
11474;DHT22;5793;52.238;13.438;2023-04-06T12:08:46;14.70;42.80
11474;DHT22;5793;52.238;13.438;2023-04-06T12:11:14;14.50;43.20
11474;DHT22;5793;52.238;13.438;2023-04-06T12:13:42;13.90;43.50
11474;DHT22;5793;52.238;13.438;2023-04-06T12:16:10;13.30;43.80
11474;DHT22;5793;52.238;13.438;2023-04-06T12:18:38;12.90;43.80
11474;DHT22;5793;52.238;13.438;2023-04-06T12:21:08;12.90;44.30
11474;DHT22;5793;52.238;13.438;2023-04-06T12:23:36;12.90;43.80
11474;DHT22;5793;52.238;13.438;2023-04-06T12:26:04;12.60;44.10
11474;DHT22;5793;52.238;13.438;2023-04-06T12:28:38;12.60;44.80
11474;DHT22;5793;52.238;13.438;2023-04-06T12:31:07;13.30;45.30
11474;DHT22;5793;52.238;13.438;2023-04-06T12:33:35;13.80;45.40
11474;DHT22;5793;52.238;13.438;2023-04-06T12:36:03;14.30;45.40
11474;DHT22;5793;52.238;13.438;2023-04-06T12:38:32;14.50;45.10
11474;DHT22;5793;52.238;13.438;2023-04-06T12:41:00;14.20;44.40
11474;DHT22;5793;52.238;13.438;2023-04-06T12:43:27;13.90;43.80
11474;DHT22;5793;52.238;13.438;2023-04-06T12:45:55;13.80;45.50
11474;DHT22;5793;52.238;13.438;2023-04-06T12:48:23;13.90;44.30
11474;DHT22;5793;52.238;13.438;2023-04-06T12:50:54;14.00;45.70
11474;DHT22;5793;52.238;13.438;2023-04-06T12:53:22;14.00;45.90
11474;DHT22;5793;52.238;13.438;2023-04-06T12:55:53;13.90;46.60
11474;DHT22;5793;52.238;13.438;2023-04-06T12:58:21;13.90;46.70
11474;DHT22;5793;52.238;13.438;2023-04-06T13:00:50;13.90;47.40
11474;DHT22;5793;52.238;13.438;2023-04-06T13:03:18;14.00;47.50
11474;DHT22;5793;52.238;13.438;2023-04-06T13:05:47;13.90;47.00
11474;DHT22;5793;52.238;13.438;2023-04-06T13:08:17;13.90;47.30
11474;DHT22;5793;52.238;13.438;2023-04-06T13:10:47;13.90;47.80
11474;DHT22;5793;52.238;13.438;2023-04-06T13:13:16;14.00;49.10
11474;DHT22;5793;52.238;13.438;2023-04-06T13:15:45;13.80;47.00
11474;DHT22;5793;52.238;13.438;2023-04-06T13:18:13;13.80;47.70
11474;DHT22;5793;52.238;13.438;2023-04-06T13:20:41;13.90;47.40
11474;DHT22;5793;52.238;13.438;2023-04-06T13:23:09;14.00;46.00
11474;DHT22;5793;52.238;13.438;2023-04-06T13:25:37;13.80;46.50
11474;DHT22;5793;52.238;13.438;2023-04-06T13:28:05;13.80;45.90
11474;DHT22;5793;52.238;13.438;2023-04-06T13:30:34;13.40;45.30
11474;DHT22;5793;52.238;13.438;2023-04-06T13:33:02;13.10;45.50
11474;DHT22;5793;52.238;13.438;2023-04-06T13:35:31;13.10;46.60
11474;DHT22;5793;52.238;13.438;2023-04-06T13:37:59;13.10;46.30
11474;DHT22;5793;52.238;13.438;2023-04-06T13:40:27;13.10;45.20
11474;DHT22;5793;52.238;13.438;2023-04-06T13:42:54;13.00;45.80
11474;DHT22;5793;52.238;13.438;2023-04-06T13:45:22;13.00;47.20
11474;DHT22;5793;52.238;13.438;2023-04-06T13:47:51;13.30;47.40
11474;DHT22;5793;52.238;13.438;2023-04-06T13:50:19;13.40;47.00
11474;DHT22;5793;52.238;13.438;2023-04-06T13:52:47;13.30;45.80
11474;DHT22;5793;52.238;13.438;2023-04-06T13:55:16;13.50;48.30
11474;DHT22;5793;52.238;13.438;2023-04-06T13:57:44;13.60;47.50
11474;DHT22;5793;52.238;13.438;2023-04-06T14:00:12;13.80;47.00
11474;DHT22;5793;52.238;13.438;2023-04-06T14:02:41;13.50;46.90
11474;DHT22;5793;52.238;13.438;2023-04-06T14:05:11;13.50;49.40
11474;DHT22;5793;52.238;13.438;2023-04-06T14:07:39;13.40;47.30
11474;DHT22;5793;52.238;13.438;2023-04-06T14:10:08;13.20;48.70
11474;DHT22;5793;52.238;13.438;2023-04-06T14:12:41;13.20;46.90
11474;DHT22;5793;52.238;13.438;2023-04-06T14:15:10;13.20;46.70
11474;DHT22;5793;52.238;13.438;2023-04-06T14:17:38;13.00;47.50
11474;DHT22;5793;52.238;13.438;2023-04-06T14:20:08;13.00;48.10
11474;DHT22;5793;52.238;13.438;2023-04-06T14:22:42;12.80;48.10
11474;DHT22;5793;52.238;13.438;2023-04-06T14:25:10;12.70;47.70
11474;DHT22;5793;52.238;13.438;2023-04-06T14:27:39;12.70;47.70
11474;DHT22;5793;52.238;13.438;2023-04-06T14:30:08;12.60;47.60
11474;DHT22;5793;52.238;13.438;2023-04-06T14:32:36;12.60;48.30
11474;DHT22;5793;52.238;13.438;2023-04-06T14:35:04;12.70;47.70
11474;DHT22;5793;52.238;13.438;2023-04-06T14:37:33;12.70;47.70
11474;DHT22;5793;52.238;13.438;2023-04-06T14:40:03;12.60;48.40
11474;DHT22;5793;52.238;13.438;2023-04-06T14:42:31;12.50;48.00
11474;DHT22;5793;52.238;13.438;2023-04-06T14:45:00;12.40;48.50
11474;DHT22;5793;52.238;13.438;2023-04-06T14:47:28;12.50;48.90
11474;DHT22;5793;52.238;13.438;2023-04-06T14:49:55;12.20;49.10
11474;DHT22;5793;52.238;13.438;2023-04-06T14:52:24;12.30;49.00
11474;DHT22;5793;52.238;13.438;2023-04-06T14:54:52;12.40;48.10
11474;DHT22;5793;52.238;13.438;2023-04-06T14:57:21;12.30;48.90
11474;DHT22;5793;52.238;13.438;2023-04-06T14:59:52;12.30;49.00
11474;DHT22;5793;52.238;13.438;2023-04-06T15:02:20;12.20;49.80
11474;DHT22;5793;52.238;13.438;2023-04-06T15:04:48;12.10;49.20
11474;DHT22;5793;52.238;13.438;2023-04-06T15:07:19;12.20;49.60
11474;DHT22;5793;52.238;13.438;2023-04-06T15:09:47;12.10;49.00
11474;DHT22;5793;52.238;13.438;2023-04-06T15:12:15;11.90;49.10
11474;DHT22;5793;52.238;13.438;2023-04-06T15:14:44;11.80;50.00
11474;DHT22;5793;52.238;13.438;2023-04-06T15:17:12;11.50;49.40
11474;DHT22;5793;52.238;13.438;2023-04-06T15:19:39;11.40;50.20
11474;DHT22;5793;52.238;13.438;2023-04-06T15:22:07;11.30;50.60
11474;DHT22;5793;52.238;13.438;2023-04-06T15:24:35;11.30;49.70
11474;DHT22;5793;52.238;13.438;2023-04-06T15:27:03;11.30;50.00
11474;DHT22;5793;52.238;13.438;2023-04-06T15:29:31;11.40;50.10
11474;DHT22;5793;52.238;13.438;2023-04-06T15:32:00;11.40;50.10
11474;DHT22;5793;52.238;13.438;2023-04-06T15:34:30;11.30;50.30
11474;DHT22;5793;52.238;13.438;2023-04-06T15:37:00;11.30;51.50
11474;DHT22;5793;52.238;13.438;2023-04-06T15:39:30;11.20;52.60
11474;DHT22;5793;52.238;13.438;2023-04-06T15:41:58;11.10;51.30
11474;DHT22;5793;52.238;13.438;2023-04-06T15:44:26;11.00;50.80